createdAt,value
2022-07-26T00:02:52.320Z,1.23
2022-07-26T00:08:10.492Z,1.15
2022-07-26T00:13:13.095Z,1.35
2022-07-26T00:18:16.168Z,0.93
2022-07-26T00:23:19.662Z,1.00
2022-07-26T00:28:21.849Z,1.27
2022-07-26T00:33:24.421Z,0.70
2022-07-26T00:43:29.272Z,1.23
2022-07-26T00:48:31.790Z,0.90
2022-07-26T00:58:36.394Z,1.20
2022-07-26T01:03:39.848Z,1.30
2022-07-26T01:08:42.722Z,1.20
2022-07-26T01:18:50.981Z,0.93
2022-07-26T01:23:53.097Z,1.35
2022-07-26T01:28:55.316Z,1.50
2022-07-26T01:33:58.054Z,1.25
2022-07-26T01:44:02.719Z,1.62
2022-07-26T01:49:07.254Z,1.10
2022-07-26T01:54:10.192Z,1.10
2022-07-26T01:59:13.115Z,1.60
2022-07-26T02:04:41.495Z,1.08
2022-07-26T02:09:44.045Z,1.12
2022-07-26T02:14:46.356Z,1.30
2022-07-26T02:19:48.813Z,0.93
2022-07-26T02:24:52.733Z,1.20
2022-07-26T02:29:54.905Z,1.65
2022-07-26T02:34:57.034Z,1.27
2022-07-26T02:39:59.190Z,0.95
2022-07-26T02:45:01.416Z,1.00
2022-07-26T02:50:04.160Z,1.37
2022-07-26T03:00:11.183Z,1.65
2022-07-26T03:05:13.790Z,1.80
2022-07-26T03:10:16.387Z,1.20
2022-07-26T03:15:18.950Z,1.15
2022-07-26T03:20:21.507Z,1.60
2022-07-26T03:25:23.702Z,1.35
2022-07-26T03:30:26.538Z,1.48
2022-07-26T03:35:28.936Z,1.30
2022-07-26T03:40:31.582Z,2.12
2022-07-26T03:45:33.863Z,1.48
2022-07-26T03:50:36.464Z,1.33
2022-07-26T03:55:57.281Z,1.00
2022-07-26T04:00:59.500Z,1.73
2022-07-26T04:06:02.299Z,1.52
2022-07-26T04:11:09.127Z,1.45
2022-07-26T04:16:11.402Z,1.52
2022-07-26T04:21:13.646Z,1.83
2022-07-26T04:26:16.218Z,1.55
2022-07-26T04:31:18.613Z,1.62
2022-07-26T04:36:20.890Z,1.65
2022-07-26T04:41:23.084Z,2.37
2022-07-26T04:46:25.777Z,1.55
2022-07-26T04:51:28.074Z,1.45
2022-07-26T04:56:30.268Z,1.60
2022-07-26T05:01:32.950Z,2.05
2022-07-26T05:06:35.909Z,1.40
2022-07-26T05:11:38.126Z,1.95
2022-07-26T05:16:44.272Z,2.45
2022-07-26T05:21:47.544Z,1.77
2022-07-26T05:31:52.511Z,1.30
2022-07-26T05:36:55.129Z,1.52
2022-07-26T05:46:59.372Z,1.12
2022-07-26T05:52:02.241Z,1.83
2022-07-26T05:57:05.245Z,1.70
2022-07-26T06:02:08.564Z,1.75
2022-07-26T06:07:11.594Z,1.80
2022-07-26T06:17:16.511Z,1.20
2022-07-26T06:22:19.155Z,1.45
2022-07-26T06:32:23.808Z,0.90
2022-07-26T06:42:28.140Z,1.17
2022-07-26T06:47:31.058Z,1.20
2022-07-26T06:52:35.180Z,1.20
2022-07-26T06:57:49.689Z,0.93
2022-07-26T07:02:52.122Z,0.70
2022-07-26T07:07:54.383Z,1.05
2022-07-26T07:12:56.954Z,1.00
2022-07-26T07:17:59.176Z,1.00
2022-07-26T07:23:01.397Z,1.23
2022-07-26T07:28:03.743Z,0.90
2022-07-26T07:33:07.464Z,0.90
2022-07-26T07:38:09.734Z,1.10
2022-07-26T07:43:12.719Z,0.80
2022-07-26T07:48:14.844Z,0.77
2022-07-26T07:53:17.228Z,1.20
2022-07-26T07:58:23.177Z,0.85
2022-07-26T08:03:25.488Z,0.70
2022-07-26T08:08:41.764Z,0.77
2022-07-26T08:13:47.924Z,0.73
2022-07-26T08:18:57.836Z,1.42
2022-07-26T08:24:00.545Z,0.90
2022-07-26T08:29:04.295Z,0.90
2022-07-26T08:34:06.623Z,0.70
2022-07-26T08:44:12.706Z,1.33
2022-07-26T08:54:17.605Z,0.80
2022-07-26T08:59:22.399Z,0.85
2022-07-26T09:04:32.255Z,0.60
2022-07-26T09:10:00.941Z,1.15
2022-07-26T09:15:06.799Z,0.82
2022-07-26T09:20:14.310Z,1.20
2022-07-26T09:25:21.585Z,0.80
2022-07-26T09:30:23.986Z,1.02
2022-07-26T09:40:50.876Z,0.63
2022-07-26T09:46:08.210Z,0.90
2022-07-26T09:51:10.755Z,0.60
2022-07-26T09:56:14.085Z,0.90
2022-07-26T10:01:16.362Z,0.60
2022-07-26T10:06:20.377Z,0.70
2022-07-26T10:16:33.099Z,1.15
2022-07-26T10:21:36.511Z,0.45
2022-07-26T10:26:40.676Z,0.82
2022-07-26T10:32:09.760Z,0.60
2022-07-26T10:37:22.063Z,0.60
2022-07-26T10:42:42.091Z,1.12
2022-07-26T10:48:14.901Z,0.75
2022-07-26T10:53:20.426Z,0.90
2022-07-26T10:58:25.136Z,0.50
2022-07-26T11:03:41.736Z,0.90
2022-07-26T11:08:48.612Z,0.98
2022-07-26T11:13:50.915Z,0.40
2022-07-26T11:18:53.057Z,0.80
2022-07-26T11:24:03.895Z,1.05
2022-07-26T11:29:06.750Z,0.73
2022-07-26T11:34:18.058Z,0.65
2022-07-26T11:39:26.118Z,1.05
2022-07-26T11:44:29.262Z,0.70
2022-07-26T11:49:59.943Z,0.95
2022-07-26T11:54:56.143Z,0.70
2022-07-26T11:59:59.914Z,0.47
2022-07-26T12:05:30.228Z,0.65
2022-07-26T12:10:32.804Z,0.80
2022-07-26T12:15:48.882Z,0.40
2022-07-26T12:21:07.764Z,1.02
2022-07-26T12:26:24.983Z,1.00
2022-07-26T12:31:28.977Z,0.90
2022-07-26T12:36:34.220Z,0.80
2022-07-26T12:41:40.539Z,0.80
2022-07-26T12:46:47.788Z,0.77
2022-07-26T12:51:50.067Z,1.05
2022-07-26T12:56:52.279Z,0.88
2022-07-26T13:01:54.484Z,0.90
2022-07-26T13:06:56.701Z,0.60
2022-07-26T13:12:00.504Z,0.88
2022-07-26T13:17:04.483Z,1.25
2022-07-26T13:22:07.959Z,1.02
2022-07-26T13:27:11.878Z,1.27
2022-07-26T13:32:14.101Z,1.20
2022-07-26T13:37:16.268Z,0.82
2022-07-26T13:42:19.329Z,1.27
2022-07-26T13:47:21.658Z,0.98
2022-07-26T13:52:24.004Z,0.82
2022-07-26T13:57:47.916Z,0.70
2022-07-26T14:02:50.925Z,0.80
2022-07-26T14:07:54.679Z,0.73
2022-07-26T14:12:57.000Z,0.68
2022-07-26T14:17:59.239Z,0.57
2022-07-26T14:23:01.860Z,0.60
2022-07-26T14:28:04.542Z,0.50
2022-07-26T14:33:07.121Z,0.98
2022-07-26T14:38:09.749Z,0.90
2022-07-26T14:43:11.933Z,0.70
2022-07-26T14:48:31.629Z,0.75
2022-07-26T14:53:38.483Z,0.98
2022-07-26T14:58:40.695Z,0.85
2022-07-26T15:03:42.903Z,0.95
2022-07-26T15:08:45.057Z,0.60
2022-07-26T15:13:47.224Z,0.82
2022-07-26T15:18:49.443Z,0.60
2022-07-26T15:23:51.643Z,0.60
2022-07-26T15:28:53.802Z,1.05
2022-07-26T15:33:55.990Z,0.90
2022-07-26T15:39:05.211Z,0.60
2022-07-26T15:44:20.063Z,0.95
2022-07-26T15:49:23.935Z,1.05
2022-07-26T15:54:26.528Z,0.80
2022-07-26T15:59:28.761Z,0.73
2022-07-26T16:04:31.123Z,0.70
2022-07-26T16:09:33.303Z,0.60
2022-07-26T16:14:35.626Z,1.35
2022-07-26T16:19:37.825Z,1.23
2022-07-26T16:24:39.945Z,0.95
2022-07-26T16:29:42.619Z,0.68
2022-07-26T16:34:44.841Z,0.80
2022-07-26T16:39:47.065Z,0.73
2022-07-26T16:44:49.366Z,1.20
2022-07-26T16:49:51.657Z,0.85
2022-07-26T16:54:53.886Z,0.70
2022-07-26T16:59:56.075Z,1.05
2022-07-26T17:04:58.781Z,1.05
2022-07-26T17:10:00.954Z,1.15
2022-07-26T17:15:04.349Z,1.02
2022-07-26T17:20:07.369Z,1.17
2022-07-26T17:25:09.972Z,1.25
2022-07-26T17:30:12.642Z,1.12
2022-07-26T17:35:15.158Z,0.98
2022-07-26T17:40:17.504Z,1.10
2022-07-26T17:45:19.733Z,1.15
2022-07-26T17:50:38.389Z,0.95
2022-07-26T17:55:42.106Z,1.20
2022-07-26T18:00:44.312Z,0.77
2022-07-26T18:05:47.495Z,1.12
2022-07-26T18:10:51.394Z,1.23
2022-07-26T18:15:54.374Z,1.48
2022-07-26T18:20:56.763Z,1.17
2022-07-26T18:25:59.107Z,0.90
2022-07-26T18:31:01.541Z,1.00
2022-07-26T18:36:07.250Z,0.77
2022-07-26T18:41:12.173Z,0.55
2022-07-26T18:46:14.926Z,0.50
2022-07-26T18:56:20.104Z,0.80
2022-07-26T19:01:22.415Z,0.80
2022-07-26T19:11:27.167Z,1.05
2022-07-26T19:16:29.428Z,1.15
2022-07-26T19:26:35.785Z,1.37
2022-07-26T19:31:40.188Z,1.08
2022-07-26T19:36:42.587Z,1.33
2022-07-26T19:51:50.345Z,1.30
2022-07-26T19:56:52.722Z,1.73
2022-07-26T20:07:00.572Z,1.58
2022-07-26T20:12:03.351Z,1.30
2022-07-26T20:17:12.237Z,1.30
2022-07-26T20:22:15.641Z,1.23
2022-07-26T20:27:17.854Z,1.40
2022-07-26T20:32:20.108Z,1.62
2022-07-26T20:37:22.310Z,1.77
2022-07-26T20:42:24.530Z,1.23
2022-07-26T20:52:29.280Z,1.50
2022-07-26T20:57:31.603Z,1.20
2022-07-26T21:02:34.102Z,1.58
2022-07-26T21:13:00.911Z,1.62
2022-07-26T21:18:03.217Z,1.87
2022-07-26T21:23:16.771Z,1.85
2022-07-26T21:28:20.934Z,1.62
2022-07-26T21:33:27.061Z,1.05
2022-07-26T21:43:34.227Z,1.70
2022-07-26T21:48:36.434Z,1.80
2022-07-26T21:53:39.324Z,1.12
2022-07-26T21:58:41.900Z,1.42
2022-07-26T22:03:44.118Z,1.33
2022-07-26T22:08:46.332Z,0.80
2022-07-26T22:13:48.563Z,1.45
2022-07-26T22:18:50.716Z,1.37
2022-07-26T22:23:52.886Z,1.37
2022-07-26T22:28:55.034Z,1.75
2022-07-26T22:33:57.187Z,1.30
2022-07-26T22:38:59.405Z,1.25
2022-07-26T22:44:01.902Z,0.88
2022-07-26T22:54:13.475Z,0.95
2022-07-26T22:59:15.800Z,1.00
2022-07-26T23:04:18.437Z,0.62
2022-07-26T23:09:21.777Z,1.00
2022-07-26T23:14:23.941Z,1.10
2022-07-26T23:19:26.186Z,0.62
2022-07-26T23:24:28.346Z,0.88
2022-07-26T23:29:30.588Z,0.68
2022-07-26T23:34:32.734Z,0.88
2022-07-26T23:39:34.874Z,0.57
2022-07-26T23:44:37.169Z,0.50
2022-07-26T23:49:39.665Z,0.90
2022-07-26T23:54:41.835Z,0.77
2022-07-26T23:59:43.989Z,0.77
